Inicio METAR Ruta Wind Satelite

Informe Meteorológico

Fecha: 2020/07/02 00:14:59 Local
2020.07.02 05:14 UTC


Estado: VENCIDO
Operación:VFR
Leticia / Vasquez Cobo, Colombia (SKLT) 04-10S 069-57W 84M
2020.07.02 0300 UTC
Wind: Variable at 2 MPH (2 KT):0
Visibility: greater than 7 mile(s):0
Sky conditions: partly cloudy
Temperature: 71 F (22 C)
Dew Point: 71 F (22 C)
Relative Humidity: 100%
Pressure (altimeter): 29.9 in. Hg (1012 hPa)
ob: SKLT 020300Z VRB02KT 9999 SCT015 SCT100 22/22 A2990
cycle: 3

SKLT 020200Z VRB02KT 9999 SCT015 SCT100 22/22 A2990
SKLT 020100Z VRB02KT 9999 SCT015 BKN100 23/23 A2988
SKLT 020000Z 00000KT 9999 BKN015 OVC080 23/23 A2985
SKLT 012300Z 02003KT 9999 BKN012 OVC080 23/23 A2984 REDZ
SKLT 012200Z VRB02KT 8000 -DZ BKN010 BKN080 23/23 A2983 RERA

2020/07/02 06:40
TAF SKLT 020430Z 0206/0306 VRB02KT 9999 SCT015 SCT080 PROB40
TEMPO 0210/0212 4000 BR BKN008
BECMG 0214/0216 20008KT
TEMPO 0219/0222 5000 TSRA BKN010CB
BECMG 0301/0303 00000KT TX31/0219Z TN23/0210Z